Terminal Aerodrome Forecast
Issued by NWS

Home | Current Version | Previous Version | Text Only | Print | Product List | Glossary Off
Versions: 1 2 3 4 5 6 7 8 9 10 11 12 13 14 15 16 17 18 19 20 21 22 23 24 25 26 27 28

000
FTUS43 KICT 192338
TAFHUT
TAF
KHUT 192338Z 2000/2024 07013KT P6SM -RA SCT015 OVC025
      TEMPO 2001/2004 5SM RA OVC015
     FM200400 01013G19KT P6SM -RA SCT009 OVC015
     FM200600 01013G19KT P6SM OVC009
     FM201500 36014G20KT P6SM BKN015=

USA.gov is the U.S. government's official web portal to all federal, state and local government web resources and services.